Stewartby, United Kingdom
Current Conditions -  °F | °C
As of 5:50 AM on Sunday 23 Nov 2014 (Local Time) from EGGW Reporting Station
Moderate Rain Moderate Rain  
Wind Chill: 42°   Ceiling: 300
Heat Index: 48°   Visibility: 3mi
Dew Point: 46°   Wind: 15mph
Humidity: 93%   Direction: 330°NNW
Pressure: 29.97"   Gusts: NA
Location:  52.07°N, 0.51°W
Report Text: EGGW 230550Z 33013KT 4900 RA BKN003 BKN019 09/08 Q1015
Loading
Personal Weather Stations






























Interactive Weather Map New forecast layout! Learn more

10-Day Weather Forecast

Advertisements
Track Severe Weather on mobile